sensor_id;sensor_type;location;lat;lon;timestamp;P1;durP1;ratioP1;P2;durP2;ratioP2
57609;SDS011;43435;46.186;9.024;2023-12-20T06:55:51;9.15;;;3.38;;
57609;SDS011;43435;46.186;9.024;2023-12-20T06:58:16;6.10;;;3.55;;
57609;SDS011;43435;46.186;9.024;2023-12-20T14:22:12;0.43;;;0.20;;
57609;SDS011;43435;46.186;9.024;2023-12-20T14:24:41;2.08;;;0.20;;
57609;SDS011;43435;46.186;9.024;2023-12-20T14:27:07;0.25;;;0.13;;
57609;SDS011;43435;46.186;9.024;2023-12-20T14:29:33;1.95;;;0.20;;
57609;SDS011;43435;46.186;9.024;2023-12-20T14:31:59;0.93;;;0.20;;
57609;SDS011;43435;46.186;9.024;2023-12-20T14:34:26;0.10;;;0.10;;
57609;SDS011;43435;46.186;9.024;2023-12-20T14:36:51;1.58;;;0.20;;
57609;SDS011;43435;46.186;9.024;2023-12-20T14:39:17;0.63;;;0.15;;
57609;SDS011;43435;46.186;9.024;2023-12-20T14:41:42;0.63;;;0.17;;
57609;SDS011;43435;46.186;9.024;2023-12-20T14:44:08;0.82;;;0.20;;
57609;SDS011;43435;46.186;9.024;2023-12-20T14:46:33;0.10;;;0.10;;
57609;SDS011;43435;46.186;9.024;2023-12-20T14:48:58;0.98;;;0.20;;
57609;SDS011;43435;46.186;9.024;2023-12-20T14:51:27;1.42;;;0.20;;
57609;SDS011;43435;46.186;9.024;2023-12-20T14:53:52;0.10;;;0.10;;
57609;SDS011;43435;46.186;9.024;2023-12-20T14:56:17;0.15;;;0.10;;
57609;SDS011;43435;46.186;9.024;2023-12-20T14:58:42;0.38;;;0.10;;
57609;SDS011;43435;46.186;9.024;2023-12-20T15:01:08;0.80;;;0.30;;
57609;SDS011;43435;46.186;9.024;2023-12-20T15:03:34;0.47;;;0.20;;
57609;SDS011;43435;46.186;9.024;2023-12-20T15:05:59;1.38;;;0.22;;
57609;SDS011;43435;46.186;9.024;2023-12-20T15:08:25;1.25;;;0.10;;
57609;SDS011;43435;46.186;9.024;2023-12-20T15:10:51;1.45;;;0.32;;
57609;SDS011;43435;46.186;9.024;2023-12-20T15:13:16;0.10;;;0.10;;
57609;SDS011;43435;46.186;9.024;2023-12-20T15:15:41;0.20;;;0.20;;
57609;SDS011;43435;46.186;9.024;2023-12-20T15:18:06;0.52;;;0.20;;
57609;SDS011;43435;46.186;9.024;2023-12-20T15:20:32;0.88;;;0.30;;
57609;SDS011;43435;46.186;9.024;2023-12-20T15:22:59;1.48;;;0.13;;
57609;SDS011;43435;46.186;9.024;2023-12-20T15:25:29;0.13;;;0.10;;
57609;SDS011;43435;46.186;9.024;2023-12-20T15:27:55;2.20;;;0.20;;
57609;SDS011;43435;46.186;9.024;2023-12-20T15:30:20;0.38;;;0.10;;
57609;SDS011;43435;46.186;9.024;2023-12-20T15:32:46;0.73;;;0.30;;
57609;SDS011;43435;46.186;9.024;2023-12-20T15:35:12;0.20;;;0.20;;
57609;SDS011;43435;46.186;9.024;2023-12-20T15:37:38;0.10;;;0.10;;
57609;SDS011;43435;46.186;9.024;2023-12-20T15:40:04;0.65;;;0.15;;
57609;SDS011;43435;46.186;9.024;2023-12-20T15:42:30;0.43;;;0.10;;
57609;SDS011;43435;46.186;9.024;2023-12-20T15:44:57;0.70;;;0.20;;
57609;SDS011;43435;46.186;9.024;2023-12-20T15:47:22;0.10;;;0.10;;
57609;SDS011;43435;46.186;9.024;2023-12-20T15:49:48;0.55;;;0.10;;
57609;SDS011;43435;46.186;9.024;2023-12-20T15:52:14;0.25;;;0.10;;
57609;SDS011;43435;46.186;9.024;2023-12-20T15:54:39;0.43;;;0.15;;
57609;SDS011;43435;46.186;9.024;2023-12-20T15:57:06;1.75;;;0.20;;
57609;SDS011;43435;46.186;9.024;2023-12-20T15:59:32;0.00;;;0.00;;
57609;SDS011;43435;46.186;9.024;2023-12-20T16:01:57;0.65;;;0.20;;
57609;SDS011;43435;46.186;9.024;2023-12-20T16:04:22;0.60;;;0.15;;
57609;SDS011;43435;46.186;9.024;2023-12-20T16:06:47;0.13;;;0.05;;
57609;SDS011;43435;46.186;9.024;2023-12-20T16:09:13;0.17;;;0.17;;
57609;SDS011;43435;46.186;9.024;2023-12-20T16:11:38;0.35;;;0.20;;
57609;SDS011;43435;46.186;9.024;2023-12-20T16:14:05;0.10;;;0.10;;
57609;SDS011;43435;46.186;9.024;2023-12-20T16:16:30;0.10;;;0.10;;
57609;SDS011;43435;46.186;9.024;2023-12-20T16:18:56;0.10;;;0.10;;
57609;SDS011;43435;46.186;9.024;2023-12-20T16:21:21;0.10;;;0.10;;
57609;SDS011;43435;46.186;9.024;2023-12-20T16:23:46;0.30;;;0.20;;
57609;SDS011;43435;46.186;9.024;2023-12-20T16:26:12;0.10;;;0.10;;
57609;SDS011;43435;46.186;9.024;2023-12-20T16:28:38;0.43;;;0.20;;
57609;SDS011;43435;46.186;9.024;2023-12-20T16:31:03;0.50;;;0.20;;
57609;SDS011;43435;46.186;9.024;2023-12-20T16:33:29;0.20;;;0.10;;
57609;SDS011;43435;46.186;9.024;2023-12-20T16:35:55;0.30;;;0.10;;
57609;SDS011;43435;46.186;9.024;2023-12-20T16:38:20;0.50;;;0.20;;
57609;SDS011;43435;46.186;9.024;2023-12-20T16:40:46;0.38;;;0.17;;
57609;SDS011;43435;46.186;9.024;2023-12-20T16:43:11;0.32;;;0.17;;
57609;SDS011;43435;46.186;9.024;2023-12-20T16:45:36;0.20;;;0.10;;
57609;SDS011;43435;46.186;9.024;2023-12-20T16:48:02;0.10;;;0.10;;
57609;SDS011;43435;46.186;9.024;2023-12-20T16:50:27;0.10;;;0.10;;
57609;SDS011;43435;46.186;9.024;2023-12-20T16:52:52;0.30;;;0.10;;
57609;SDS011;43435;46.186;9.024;2023-12-20T16:55:18;0.40;;;0.20;;
57609;SDS011;43435;46.186;9.024;2023-12-20T16:57:43;0.35;;;0.22;;
57609;SDS011;43435;46.186;9.024;2023-12-20T17:00:09;0.20;;;0.17;;
57609;SDS011;43435;46.186;9.024;2023-12-20T17:02:34;0.45;;;0.20;;
57609;SDS011;43435;46.186;9.024;2023-12-20T17:05:00;0.47;;;0.20;;
57609;SDS011;43435;46.186;9.024;2023-12-20T17:07:25;0.25;;;0.10;;
57609;SDS011;43435;46.186;9.024;2023-12-20T17:09:52;0.13;;;0.10;;
57609;SDS011;43435;46.186;9.024;2023-12-20T17:12:18;0.90;;;0.17;;
57609;SDS011;43435;46.186;9.024;2023-12-20T17:14:43;0.50;;;0.20;;
57609;SDS011;43435;46.186;9.024;2023-12-20T17:17:08;0.55;;;0.20;;
57609;SDS011;43435;46.186;9.024;2023-12-20T17:19:34;2.33;;;0.30;;
57609;SDS011;43435;46.186;9.024;2023-12-20T17:21:59;1.48;;;0.20;;
57609;SDS011;43435;46.186;9.024;2023-12-20T17:24:25;0.28;;;0.20;;
57609;SDS011;43435;46.186;9.024;2023-12-20T17:26:51;0.45;;;0.20;;
57609;SDS011;43435;46.186;9.024;2023-12-20T17:29:17;0.30;;;0.20;;
57609;SDS011;43435;46.186;9.024;2023-12-20T17:31:42;0.45;;;0.20;;
57609;SDS011;43435;46.186;9.024;2023-12-20T17:34:08;0.17;;;0.17;;
57609;SDS011;43435;46.186;9.024;2023-12-20T17:36:36;0.30;;;0.10;;
57609;SDS011;43435;46.186;9.024;2023-12-20T17:39:02;0.10;;;0.10;;
57609;SDS011;43435;46.186;9.024;2023-12-20T17:41:27;0.28;;;0.20;;
57609;SDS011;43435;46.186;9.024;2023-12-20T17:43:52;0.20;;;0.20;;
57609;SDS011;43435;46.186;9.024;2023-12-20T17:46:17;0.40;;;0.15;;
57609;SDS011;43435;46.186;9.024;2023-12-20T17:48:43;0.20;;;0.20;;
57609;SDS011;43435;46.186;9.024;2023-12-20T17:51:08;0.57;;;0.28;;
57609;SDS011;43435;46.186;9.024;2023-12-20T17:53:33;0.47;;;0.40;;
57609;SDS011;43435;46.186;9.024;2023-12-20T17:55:59;1.23;;;0.22;;
57609;SDS011;43435;46.186;9.024;2023-12-20T17:58:24;0.43;;;0.20;;
57609;SDS011;43435;46.186;9.024;2023-12-20T18:00:50;0.10;;;0.10;;
57609;SDS011;43435;46.186;9.024;2023-12-20T18:03:15;0.20;;;0.20;;
57609;SDS011;43435;46.186;9.024;2023-12-20T18:05:40;0.08;;;0.08;;
57609;SDS011;43435;46.186;9.024;2023-12-20T18:08:06;0.28;;;0.10;;
57609;SDS011;43435;46.186;9.024;2023-12-20T18:10:31;1.67;;;0.35;;
57609;SDS011;43435;46.186;9.024;2023-12-20T18:12:56;1.88;;;0.35;;
57609;SDS011;43435;46.186;9.024;2023-12-20T18:15:21;0.35;;;0.30;;
57609;SDS011;43435;46.186;9.024;2023-12-20T18:17:47;0.30;;;0.20;;
57609;SDS011;43435;46.186;9.024;2023-12-20T18:20:15;1.27;;;0.38;;
57609;SDS011;43435;46.186;9.024;2023-12-20T18:22:43;0.60;;;0.30;;
57609;SDS011;43435;46.186;9.024;2023-12-20T18:25:08;0.28;;;0.20;;
57609;SDS011;43435;46.186;9.024;2023-12-20T18:27:34;0.88;;;0.10;;
57609;SDS011;43435;46.186;9.024;2023-12-20T18:29:59;0.47;;;0.22;;
57609;SDS011;43435;46.186;9.024;2023-12-20T18:32:30;0.30;;;0.10;;
57609;SDS011;43435;46.186;9.024;2023-12-20T18:34:56;0.20;;;0.10;;
57609;SDS011;43435;46.186;9.024;2023-12-20T18:37:22;0.22;;;0.10;;
57609;SDS011;43435;46.186;9.024;2023-12-20T18:39:47;0.52;;;0.30;;
57609;SDS011;43435;46.186;9.024;2023-12-20T18:42:12;0.30;;;0.10;;
57609;SDS011;43435;46.186;9.024;2023-12-20T18:44:38;0.35;;;0.20;;
57609;SDS011;43435;46.186;9.024;2023-12-20T18:47:03;0.50;;;0.30;;
57609;SDS011;43435;46.186;9.024;2023-12-20T18:49:29;0.47;;;0.25;;
57609;SDS011;43435;46.186;9.024;2023-12-20T18:51:54;0.25;;;0.20;;
57609;SDS011;43435;46.186;9.024;2023-12-20T18:54:19;0.60;;;0.30;;
57609;SDS011;43435;46.186;9.024;2023-12-20T18:56:46;0.35;;;0.20;;
57609;SDS011;43435;46.186;9.024;2023-12-20T18:59:13;0.30;;;0.20;;
57609;SDS011;43435;46.186;9.024;2023-12-20T19:01:40;0.22;;;0.20;;
57609;SDS011;43435;46.186;9.024;2023-12-20T19:04:05;0.30;;;0.20;;
57609;SDS011;43435;46.186;9.024;2023-12-20T19:06:30;1.15;;;0.20;;
57609;SDS011;43435;46.186;9.024;2023-12-20T19:08:56;0.40;;;0.20;;
57609;SDS011;43435;46.186;9.024;2023-12-20T19:11:21;0.43;;;0.30;;
57609;SDS011;43435;46.186;9.024;2023-12-20T19:13:47;1.00;;;0.38;;
57609;SDS011;43435;46.186;9.024;2023-12-20T19:16:12;1.73;;;0.77;;
57609;SDS011;43435;46.186;9.024;2023-12-20T19:18:38;0.73;;;0.30;;
57609;SDS011;43435;46.186;9.024;2023-12-20T19:21:04;1.80;;;0.50;;
57609;SDS011;43435;46.186;9.024;2023-12-20T19:23:32;1.48;;;0.60;;
57609;SDS011;43435;46.186;9.024;2023-12-20T19:26:02;1.17;;;0.40;;
57609;SDS011;43435;46.186;9.024;2023-12-20T19:28:27;1.00;;;0.38;;
57609;SDS011;43435;46.186;9.024;2023-12-20T19:30:53;2.72;;;0.32;;
57609;SDS011;43435;46.186;9.024;2023-12-20T19:33:19;0.45;;;0.25;;
57609;SDS011;43435;46.186;9.024;2023-12-20T19:35:45;3.78;;;1.75;;
57609;SDS011;43435;46.186;9.024;2023-12-20T19:38:11;0.45;;;0.30;;
57609;SDS011;43435;46.186;9.024;2023-12-20T19:40:36;0.85;;;0.30;;
57609;SDS011;43435;46.186;9.024;2023-12-20T19:43:02;0.68;;;0.45;;
57609;SDS011;43435;46.186;9.024;2023-12-20T19:45:27;1.50;;;0.70;;
57609;SDS011;43435;46.186;9.024;2023-12-20T19:47:53;1.00;;;0.40;;
57609;SDS011;43435;46.186;9.024;2023-12-20T19:50:18;0.63;;;0.38;;
57609;SDS011;43435;46.186;9.024;2023-12-20T19:52:44;0.28;;;0.22;;
57609;SDS011;43435;46.186;9.024;2023-12-20T19:55:10;1.67;;;0.40;;
57609;SDS011;43435;46.186;9.024;2023-12-20T19:57:36;1.02;;;0.30;;
57609;SDS011;43435;46.186;9.024;2023-12-20T20:00:01;1.10;;;0.50;;
57609;SDS011;43435;46.186;9.024;2023-12-20T20:02:27;0.60;;;0.30;;
57609;SDS011;43435;46.186;9.024;2023-12-20T20:04:52;1.00;;;0.40;;
57609;SDS011;43435;46.186;9.024;2023-12-20T20:07:18;1.33;;;0.38;;
57609;SDS011;43435;46.186;9.024;2023-12-20T20:09:47;0.77;;;0.50;;
57609;SDS011;43435;46.186;9.024;2023-12-20T20:12:12;0.70;;;0.30;;
57609;SDS011;43435;46.186;9.024;2023-12-20T20:14:38;1.08;;;0.60;;
57609;SDS011;43435;46.186;9.024;2023-12-20T20:17:03;0.80;;;0.70;;
57609;SDS011;43435;46.186;9.024;2023-12-20T20:19:28;0.68;;;0.50;;
57609;SDS011;43435;46.186;9.024;2023-12-20T20:21:55;1.45;;;0.93;;
57609;SDS011;43435;46.186;9.024;2023-12-20T20:24:20;0.70;;;0.45;;
57609;SDS011;43435;46.186;9.024;2023-12-20T20:26:46;0.73;;;0.40;;
57609;SDS011;43435;46.186;9.024;2023-12-20T20:29:11;1.17;;;0.60;;
57609;SDS011;43435;46.186;9.024;2023-12-20T20:31:36;1.02;;;0.30;;
57609;SDS011;43435;46.186;9.024;2023-12-20T20:34:02;0.95;;;0.38;;
57609;SDS011;43435;46.186;9.024;2023-12-20T20:36:28;1.02;;;0.20;;
57609;SDS011;43435;46.186;9.024;2023-12-20T20:38:53;0.47;;;0.25;;
57609;SDS011;43435;46.186;9.024;2023-12-20T20:41:19;0.30;;;0.20;;
57609;SDS011;43435;46.186;9.024;2023-12-20T20:43:45;0.45;;;0.30;;
57609;SDS011;43435;46.186;9.024;2023-12-20T20:46:10;0.95;;;0.30;;
57609;SDS011;43435;46.186;9.024;2023-12-20T20:48:36;0.15;;;0.13;;
57609;SDS011;43435;46.186;9.024;2023-12-20T20:51:01;0.57;;;0.30;;
57609;SDS011;43435;46.186;9.024;2023-12-20T20:53:27;0.85;;;0.20;;
57609;SDS011;43435;46.186;9.024;2023-12-20T20:55:52;0.50;;;0.15;;
57609;SDS011;43435;46.186;9.024;2023-12-20T20:58:18;0.68;;;0.40;;
57609;SDS011;43435;46.186;9.024;2023-12-20T21:00:43;0.60;;;0.43;;
57609;SDS011;43435;46.186;9.024;2023-12-20T21:03:08;0.75;;;0.47;;
57609;SDS011;43435;46.186;9.024;2023-12-20T21:05:34;0.77;;;0.40;;
57609;SDS011;43435;46.186;9.024;2023-12-20T21:07:59;0.57;;;0.30;;
57609;SDS011;43435;46.186;9.024;2023-12-20T21:10:24;1.05;;;0.40;;
57609;SDS011;43435;46.186;9.024;2023-12-20T21:12:50;1.25;;;0.70;;
57609;SDS011;43435;46.186;9.024;2023-12-20T21:15:15;0.90;;;0.40;;
57609;SDS011;43435;46.186;9.024;2023-12-20T21:17:40;1.02;;;0.45;;
57609;SDS011;43435;46.186;9.024;2023-12-20T21:20:12;1.33;;;0.60;;
57609;SDS011;43435;46.186;9.024;2023-12-20T21:22:37;0.63;;;0.38;;
57609;SDS011;43435;46.186;9.024;2023-12-20T21:25:03;0.88;;;0.38;;
57609;SDS011;43435;46.186;9.024;2023-12-20T21:27:29;0.55;;;0.32;;
57609;SDS011;43435;46.186;9.024;2023-12-20T21:29:56;0.40;;;0.30;;
57609;SDS011;43435;46.186;9.024;2023-12-20T21:32:21;1.00;;;0.50;;
57609;SDS011;43435;46.186;9.024;2023-12-20T21:34:47;0.55;;;0.47;;
57609;SDS011;43435;46.186;9.024;2023-12-20T21:37:12;0.63;;;0.40;;
57609;SDS011;43435;46.186;9.024;2023-12-20T21:39:37;0.85;;;0.52;;
57609;SDS011;43435;46.186;9.024;2023-12-20T21:42:03;0.70;;;0.40;;
57609;SDS011;43435;46.186;9.024;2023-12-20T21:44:29;0.60;;;0.40;;
57609;SDS011;43435;46.186;9.024;2023-12-20T21:46:54;1.00;;;0.60;;
57609;SDS011;43435;46.186;9.024;2023-12-20T21:49:20;2.72;;;1.17;;
57609;SDS011;43435;46.186;9.024;2023-12-20T21:51:45;1.42;;;0.70;;
57609;SDS011;43435;46.186;9.024;2023-12-20T21:54:10;1.00;;;0.60;;
57609;SDS011;43435;46.186;9.024;2023-12-20T21:56:36;1.40;;;0.80;;
57609;SDS011;43435;46.186;9.024;2023-12-20T21:59:01;1.63;;;0.77;;
57609;SDS011;43435;46.186;9.024;2023-12-20T22:01:27;0.95;;;0.50;;
57609;SDS011;43435;46.186;9.024;2023-12-20T22:03:52;1.10;;;0.68;;
57609;SDS011;43435;46.186;9.024;2023-12-20T22:06:17;2.72;;;1.40;;
57609;SDS011;43435;46.186;9.024;2023-12-20T22:08:43;1.83;;;0.80;;
57609;SDS011;43435;46.186;9.024;2023-12-20T22:11:08;1.30;;;0.68;;
57609;SDS011;43435;46.186;9.024;2023-12-20T22:13:33;1.17;;;0.50;;
57609;SDS011;43435;46.186;9.024;2023-12-20T22:15:58;1.08;;;0.43;;
57609;SDS011;43435;46.186;9.024;2023-12-20T22:18:24;1.17;;;0.47;;
57609;SDS011;43435;46.186;9.024;2023-12-20T22:20:49;0.68;;;0.50;;
57609;SDS011;43435;46.186;9.024;2023-12-20T22:23:15;0.75;;;0.60;;
57609;SDS011;43435;46.186;9.024;2023-12-20T22:25:41;1.92;;;1.00;;
57609;SDS011;43435;46.186;9.024;2023-12-20T22:28:07;0.80;;;0.60;;
57609;SDS011;43435;46.186;9.024;2023-12-20T22:30:32;0.98;;;0.40;;
57609;SDS011;43435;46.186;9.024;2023-12-20T22:32:57;1.23;;;0.50;;
57609;SDS011;43435;46.186;9.024;2023-12-20T22:35:23;0.57;;;0.35;;
57609;SDS011;43435;46.186;9.024;2023-12-20T22:37:48;0.45;;;0.30;;
57609;SDS011;43435;46.186;9.024;2023-12-20T22:40:13;0.82;;;0.40;;
